createdAt,value
2017-09-22T00:00:40.343Z,9.63
2017-09-22T00:03:07.890Z,9.33
2017-09-22T00:05:36.182Z,9.77
2017-09-22T00:08:03.716Z,9.10
2017-09-22T00:10:31.254Z,10.10
2017-09-22T00:12:58.844Z,13.20
2017-09-22T00:15:26.373Z,11.00
2017-09-22T00:17:54.993Z,11.57
2017-09-22T00:20:22.533Z,11.80
2017-09-22T00:22:50.065Z,11.50
2017-09-22T00:25:17.632Z,10.93
2017-09-22T00:27:45.928Z,11.50
2017-09-22T00:30:13.467Z,11.60
2017-09-22T00:32:41.764Z,11.60
2017-09-22T00:35:09.375Z,10.70
2017-09-22T00:37:36.929Z,11.70
2017-09-22T00:40:04.448Z,12.20
2017-09-22T00:42:32.009Z,11.47
2017-09-22T00:44:59.549Z,11.20
2017-09-22T00:47:27.883Z,11.10
2017-09-22T00:49:55.420Z,11.60
2017-09-22T00:52:22.968Z,11.43
2017-09-22T00:54:50.516Z,11.43
2017-09-22T00:57:18.096Z,10.27
2017-09-22T00:59:45.640Z,11.27
2017-09-22T01:02:13.194Z,12.47
2017-09-22T01:04:40.719Z,13.40
2017-09-22T01:07:09.047Z,11.17
2017-09-22T01:09:36.624Z,12.20
2017-09-22T01:12:04.184Z,11.30
2017-09-22T01:14:31.764Z,11.10
2017-09-22T01:16:59.318Z,10.97
2017-09-22T01:19:26.846Z,10.30
2017-09-22T01:21:54.384Z,11.00
2017-09-22T01:24:21.955Z,11.40
2017-09-22T01:26:49.525Z,10.70
2017-09-22T01:29:17.066Z,10.43
2017-09-22T01:31:45.392Z,10.67
2017-09-22T01:34:12.933Z,10.43
2017-09-22T01:36:40.497Z,11.00
2017-09-22T01:39:08.031Z,11.50
2017-09-22T01:41:35.645Z,11.30
2017-09-22T01:44:03.192Z,11.40
2017-09-22T01:46:30.746Z,11.83
2017-09-22T01:48:58.293Z,12.87
2017-09-22T01:51:25.834Z,11.20
2017-09-22T01:53:53.369Z,12.33
2017-09-22T01:56:20.956Z,11.23
2017-09-22T01:58:48.529Z,11.90
2017-09-22T02:01:16.068Z,12.03
2017-09-22T02:03:43.605Z,10.57
2017-09-22T02:06:11.165Z,10.50
2017-09-22T02:08:38.745Z,9.97
2017-09-22T02:11:06.288Z,9.63
2017-09-22T02:13:33.822Z,10.60
2017-09-22T02:16:01.361Z,9.60
2017-09-22T02:18:28.879Z,10.27
2017-09-22T02:20:56.411Z,9.67
2017-09-22T02:23:23.965Z,10.33
2017-09-22T02:25:51.525Z,11.50
2017-09-22T02:28:19.832Z,10.00
2017-09-22T02:30:47.392Z,11.50
2017-09-22T02:33:14.950Z,9.07
2017-09-22T02:35:42.496Z,10.70
2017-09-22T02:38:10.062Z,10.30
2017-09-22T02:40:37.597Z,10.27
2017-09-22T02:43:05.167Z,10.50
2017-09-22T02:45:32.711Z,10.57
2017-09-22T02:48:01.053Z,10.53
2017-09-22T02:50:28.600Z,10.00
2017-09-22T02:52:56.160Z,10.43
2017-09-22T02:55:23.727Z,10.60
2017-09-22T02:57:51.283Z,9.50
2017-09-22T03:00:18.810Z,9.73
2017-09-22T03:02:46.360Z,10.93
2017-09-22T03:05:13.896Z,10.80
2017-09-22T03:07:41.457Z,11.20
2017-09-22T03:10:09.773Z,11.50
2017-09-22T03:12:37.330Z,10.00
2017-09-22T03:15:04.858Z,11.90
2017-09-22T03:17:33.186Z,12.30
2017-09-22T03:20:00.719Z,10.80
2017-09-22T03:22:28.276Z,13.00
2017-09-22T03:24:55.840Z,12.27
2017-09-22T03:27:23.388Z,12.23
2017-09-22T03:29:50.941Z,12.20
2017-09-22T03:32:19.219Z,10.67
2017-09-22T03:34:46.760Z,10.73
2017-09-22T03:37:15.058Z,10.53
2017-09-22T03:39:43.082Z,11.00
2017-09-22T03:42:10.604Z,10.70
2017-09-22T03:44:38.133Z,9.17
2017-09-22T03:47:06.458Z,10.53
2017-09-22T03:49:33.989Z,9.17
2017-09-22T03:52:01.534Z,9.20
2017-09-22T03:54:29.133Z,9.47
2017-09-22T03:56:56.693Z,8.70
2017-09-22T03:59:24.232Z,9.20
2017-09-22T04:01:51.796Z,9.20
2017-09-22T04:04:19.327Z,8.67
2017-09-22T04:06:47.604Z,9.70
2017-09-22T04:09:15.917Z,8.90
2017-09-22T04:11:43.443Z,9.33
2017-09-22T04:14:10.993Z,9.30
2017-09-22T04:16:39.308Z,8.50
2017-09-22T04:19:06.857Z,8.10
2017-09-22T04:21:34.395Z,8.97
2017-09-22T04:24:02.692Z,8.13
2017-09-22T04:26:31.004Z,8.27
2017-09-22T04:28:58.556Z,8.13
2017-09-22T04:31:26.151Z,8.00
2017-09-22T04:33:54.489Z,9.20
2017-09-22T04:36:22.001Z,8.77
2017-09-22T04:38:49.527Z,9.30
2017-09-22T04:41:17.072Z,8.30
2017-09-22T04:43:44.589Z,9.30
2017-09-22T04:46:12.135Z,8.30
2017-09-22T04:48:40.434Z,9.30
2017-09-22T04:51:07.992Z,8.40
2017-09-22T04:53:35.576Z,9.97
2017-09-22T04:56:03.150Z,10.27
2017-09-22T04:58:30.674Z,8.70
2017-09-22T05:00:58.247Z,7.77
2017-09-22T05:03:25.814Z,7.80
2017-09-22T05:05:53.365Z,9.03
2017-09-22T05:08:20.922Z,10.80
2017-09-22T05:10:48.470Z,9.03
2017-09-22T05:13:16.018Z,9.90
2017-09-22T05:15:43.552Z,19.83
2017-09-22T05:18:11.878Z,23.93
2017-09-22T05:20:39.402Z,21.00
2017-09-22T05:23:07.709Z,16.93
2017-09-22T05:25:35.263Z,16.07
2017-09-22T05:28:02.812Z,16.27
2017-09-22T05:30:30.346Z,13.93
2017-09-22T05:32:57.890Z,11.93
2017-09-22T05:35:25.435Z,10.47
2017-09-22T05:37:52.974Z,11.03
2017-09-22T05:40:20.518Z,10.20
2017-09-22T05:42:48.051Z,10.57
2017-09-22T05:45:15.582Z,10.40
2017-09-22T05:47:43.910Z,9.90
2017-09-22T05:50:11.445Z,10.20
2017-09-22T05:52:38.996Z,10.00
2017-09-22T05:55:07.312Z,10.13
2017-09-22T05:57:34.827Z,9.43
2017-09-22T06:00:03.146Z,13.10
2017-09-22T06:02:30.690Z,11.30
2017-09-22T06:04:58.708Z,11.87
2017-09-22T06:07:26.228Z,10.13
2017-09-22T06:09:53.770Z,10.50
2017-09-22T06:12:21.308Z,8.63
2017-09-22T06:14:49.607Z,9.37
2017-09-22T06:17:17.181Z,9.63
2017-09-22T06:19:44.744Z,8.53
2017-09-22T06:22:12.356Z,9.57
2017-09-22T06:24:40.681Z,8.30
2017-09-22T06:27:08.214Z,8.97
2017-09-22T06:29:35.745Z,7.80
2017-09-22T06:32:04.096Z,9.17
2017-09-22T06:34:31.618Z,8.00
2017-09-22T06:36:59.179Z,8.87
2017-09-22T06:39:26.710Z,9.10
2017-09-22T06:41:54.272Z,8.60
2017-09-22T06:44:22.580Z,7.67
2017-09-22T06:46:50.417Z,6.97
2017-09-22T06:49:18.709Z,8.17
2017-09-22T06:51:46.241Z,6.97
2017-09-22T06:54:13.808Z,6.80
2017-09-22T06:56:42.112Z,6.27
2017-09-22T06:59:09.649Z,8.30
2017-09-22T07:01:37.942Z,7.37
2017-09-22T07:04:05.523Z,7.60
2017-09-22T07:06:33.034Z,7.33
2017-09-22T07:09:00.601Z,9.90
2017-09-22T07:11:28.914Z,16.50
2017-09-22T07:13:56.470Z,20.90
2017-09-22T07:16:24.033Z,11.40
2017-09-22T07:18:51.557Z,10.80
2017-09-22T07:21:19.883Z,11.30
2017-09-22T07:23:47.430Z,10.77
2017-09-22T07:26:14.999Z,11.87
2017-09-22T07:28:42.545Z,10.20
2017-09-22T07:31:10.103Z,11.50
2017-09-22T07:33:37.658Z,15.73
2017-09-22T07:36:05.988Z,12.37
2017-09-22T07:38:33.591Z,15.80
2017-09-22T07:41:01.155Z,10.00
2017-09-22T07:43:28.692Z,10.77
2017-09-22T07:45:57.009Z,10.57
2017-09-22T07:48:24.566Z,9.77
2017-09-22T07:50:52.097Z,10.57
2017-09-22T07:53:19.658Z,10.73
2017-09-22T07:55:47.801Z,11.60
2017-09-22T07:58:15.361Z,11.53
2017-09-22T08:00:42.935Z,10.47
2017-09-22T08:03:11.247Z,11.43
2017-09-22T08:05:38.824Z,10.93
2017-09-22T08:08:07.098Z,12.93
2017-09-22T08:10:34.741Z,14.50
2017-09-22T08:13:02.280Z,12.87
2017-09-22T08:15:29.843Z,12.00
2017-09-22T08:17:57.405Z,14.17
2017-09-22T08:20:24.965Z,14.20
2017-09-22T08:22:52.813Z,15.27
2017-09-22T08:25:20.403Z,14.50
2017-09-22T08:27:47.951Z,14.97
2017-09-22T08:30:15.796Z,13.53
2017-09-22T08:32:43.344Z,14.93
2017-09-22T08:35:11.672Z,14.43
2017-09-22T08:37:39.252Z,13.27
2017-09-22T08:40:06.851Z,15.10
2017-09-22T08:42:34.437Z,15.40
2017-09-22T08:45:02.016Z,15.77
2017-09-22T08:47:29.568Z,14.50
2017-09-22T08:49:57.132Z,15.90
2017-09-22T08:52:25.032Z,14.93
2017-09-22T08:54:53.360Z,14.23
2017-09-22T08:57:20.918Z,15.53
2017-09-22T08:59:48.494Z,15.20
2017-09-22T09:02:16.034Z,15.27
2017-09-22T09:04:43.867Z,16.30
2017-09-22T09:07:12.193Z,13.80
2017-09-22T09:09:39.737Z,12.73
2017-09-22T09:12:08.107Z,14.10
2017-09-22T09:14:35.687Z,12.80
2017-09-22T09:17:03.253Z,12.30
2017-09-22T09:19:30.789Z,11.63
2017-09-22T09:21:59.134Z,10.53
2017-09-22T09:24:26.701Z,10.03
2017-09-22T09:26:55.026Z,9.97
2017-09-22T09:29:22.587Z,10.60
2017-09-22T09:31:50.141Z,11.83
2017-09-22T09:34:17.701Z,11.60
2017-09-22T09:36:45.268Z,10.30
2017-09-22T09:39:12.842Z,11.00
2017-09-22T09:41:41.201Z,10.33
2017-09-22T09:44:09.166Z,9.80
2017-09-22T09:46:36.697Z,10.30
2017-09-22T09:49:04.226Z,10.27
2017-09-22T09:51:31.787Z,9.93
2017-09-22T09:54:00.077Z,9.00
2017-09-22T09:56:28.428Z,9.97
2017-09-22T09:58:55.988Z,9.20
2017-09-22T10:01:24.340Z,9.13
2017-09-22T10:03:51.880Z,8.93
2017-09-22T10:06:19.429Z,9.27
2017-09-22T10:08:46.982Z,8.27
2017-09-22T10:11:14.549Z,8.57
2017-09-22T10:13:42.102Z,8.70
2017-09-22T10:16:09.664Z,8.10
2017-09-22T10:18:37.955Z,8.10
2017-09-22T10:21:05.499Z,8.00
2017-09-22T10:23:33.329Z,7.67
2017-09-22T10:26:00.888Z,8.83
2017-09-22T10:28:30.062Z,8.50
2017-09-22T10:30:57.632Z,8.33
2017-09-22T10:33:25.205Z,7.73
2017-09-22T10:35:53.976Z,8.20
2017-09-22T10:38:21.549Z,7.40
2017-09-22T10:40:49.865Z,7.83
2017-09-22T10:43:17.458Z,7.63
2017-09-22T10:45:45.008Z,7.00
2017-09-22T10:48:12.595Z,6.30
2017-09-22T10:50:40.149Z,6.50
2017-09-22T10:53:07.729Z,6.70
2017-09-22T10:55:35.285Z,5.83
2017-09-22T10:58:03.623Z,6.77
2017-09-22T11:00:31.183Z,6.90
2017-09-22T11:02:58.735Z,5.60
2017-09-22T11:05:26.324Z,5.03
2017-09-22T11:07:53.873Z,5.50
2017-09-22T11:10:21.456Z,6.03
2017-09-22T11:12:49.742Z,5.57
2017-09-22T11:15:18.090Z,6.77
2017-09-22T11:17:45.674Z,7.00
2017-09-22T11:20:13.982Z,6.50
2017-09-22T11:22:41.556Z,7.07
2017-09-22T11:25:09.103Z,7.33
2017-09-22T11:27:36.677Z,7.33
2017-09-22T11:30:05.080Z,6.70
2017-09-22T11:32:33.049Z,6.60
2017-09-22T11:35:00.686Z,6.87
2017-09-22T11:37:28.263Z,7.63
2017-09-22T11:39:55.810Z,7.37
2017-09-22T11:42:23.355Z,7.30
2017-09-22T11:44:50.967Z,7.30
2017-09-22T11:47:19.282Z,6.83
2017-09-22T11:49:46.881Z,7.80
2017-09-22T11:52:14.419Z,7.70
2017-09-22T11:54:41.950Z,7.80
2017-09-22T11:57:10.238Z,6.93
2017-09-22T11:59:37.799Z,6.90
2017-09-22T12:02:05.324Z,7.00
2017-09-22T12:04:32.900Z,5.57
2017-09-22T12:07:01.299Z,6.30
2017-09-22T12:09:28.851Z,6.03
2017-09-22T12:11:56.402Z,5.70
2017-09-22T12:14:23.949Z,4.80
2017-09-22T12:16:52.267Z,5.13
2017-09-22T12:19:19.835Z,5.40
2017-09-22T12:21:47.488Z,4.60
2017-09-22T12:24:15.046Z,4.53
2017-09-22T12:26:42.644Z,4.60
2017-09-22T12:29:10.199Z,5.33
2017-09-22T12:31:37.731Z,5.03
2017-09-22T12:34:05.278Z,5.10
2017-09-22T12:36:32.822Z,5.50
2017-09-22T12:39:00.358Z,4.80
2017-09-22T12:41:28.678Z,5.17
2017-09-22T12:43:56.227Z,4.93
2017-09-22T12:46:23.785Z,4.00
2017-09-22T12:48:51.320Z,4.70
2017-09-22T12:51:18.910Z,4.80
2017-09-22T12:53:46.864Z,5.03
2017-09-22T12:56:15.681Z,4.60
2017-09-22T12:58:43.275Z,4.40
2017-09-22T13:01:10.833Z,4.10
2017-09-22T13:03:38.431Z,4.77
2017-09-22T13:06:06.024Z,4.40
2017-09-22T13:08:34.554Z,4.13
2017-09-22T13:11:02.172Z,4.20
2017-09-22T13:13:30.110Z,5.03
2017-09-22T13:15:57.702Z,4.30
2017-09-22T13:18:25.269Z,4.40
2017-09-22T13:20:52.920Z,4.40
2017-09-22T13:23:20.522Z,4.17
2017-09-22T13:25:48.831Z,4.70
2017-09-22T13:28:16.402Z,4.83
2017-09-22T13:30:44.060Z,4.57
2017-09-22T13:33:11.617Z,4.50
2017-09-22T13:35:39.284Z,4.80
2017-09-22T13:38:06.896Z,4.40
2017-09-22T13:40:34.480Z,4.40
2017-09-22T13:43:02.065Z,5.10
2017-09-22T13:45:29.645Z,4.87
2017-09-22T13:47:57.279Z,4.57
2017-09-22T13:50:25.454Z,4.67
2017-09-22T13:52:53.012Z,4.20
2017-09-22T13:55:20.588Z,3.70
2017-09-22T13:57:48.181Z,4.20
2017-09-22T14:00:15.891Z,3.23
2017-09-22T14:02:43.458Z,3.50
2017-09-22T14:05:11.001Z,3.70
2017-09-22T14:07:39.227Z,3.80
2017-09-22T14:10:06.790Z,3.23
2017-09-22T14:12:34.395Z,3.90
2017-09-22T14:15:01.995Z,3.63
2017-09-22T14:17:29.583Z,3.97
2017-09-22T14:19:57.960Z,3.87
2017-09-22T14:22:25.546Z,3.47
2017-09-22T14:24:53.126Z,3.50
2017-09-22T14:27:21.445Z,3.70
2017-09-22T14:29:49.011Z,3.60
2017-09-22T14:32:16.576Z,3.20
2017-09-22T14:34:44.124Z,4.53
2017-09-22T14:37:11.683Z,3.37
2017-09-22T14:39:39.241Z,3.33
2017-09-22T14:42:06.807Z,4.10
2017-09-22T14:44:34.361Z,3.93
2017-09-22T14:47:01.933Z,3.70
2017-09-22T14:49:29.515Z,4.40
2017-09-22T14:51:57.079Z,3.90
2017-09-22T14:54:24.645Z,3.70
2017-09-22T14:56:52.198Z,3.53
2017-09-22T14:59:19.750Z,4.00
2017-09-22T15:01:47.312Z,3.77
2017-09-22T15:04:14.870Z,3.80
2017-09-22T15:06:42.439Z,4.30
2017-09-22T15:09:10.290Z,4.43
2017-09-22T15:13:59.494Z,4.17
2017-09-22T15:16:27.549Z,4.47
2017-09-22T15:18:55.118Z,4.30
2017-09-22T15:21:22.685Z,4.07
2017-09-22T15:23:50.220Z,5.03
2017-09-22T15:26:18.119Z,5.07
2017-09-22T15:28:45.676Z,5.03
2017-09-22T15:31:13.228Z,5.10
2017-09-22T15:33:40.784Z,4.77
2017-09-22T15:36:08.304Z,5.40
2017-09-22T15:38:36.614Z,5.10
2017-09-22T15:41:04.152Z,4.50
2017-09-22T15:43:32.461Z,4.70
2017-09-22T15:46:00.143Z,4.77
2017-09-22T15:48:27.729Z,4.97
2017-09-22T15:50:55.293Z,5.00
2017-09-22T15:53:22.844Z,5.10
2017-09-22T15:55:50.394Z,5.23
2017-09-22T15:58:17.964Z,5.30
2017-09-22T16:00:45.545Z,4.80
2017-09-22T16:03:13.851Z,4.93
2017-09-22T16:05:41.447Z,5.70
2017-09-22T16:08:09.066Z,5.30
2017-09-22T16:10:36.644Z,4.90
2017-09-22T16:13:04.184Z,5.10
2017-09-22T16:15:32.016Z,5.70
2017-09-22T16:18:00.322Z,5.20
2017-09-22T16:20:27.904Z,4.83
2017-09-22T16:22:55.541Z,4.60
2017-09-22T16:25:23.103Z,5.90
2017-09-22T16:27:51.034Z,5.27
2017-09-22T16:30:18.595Z,5.50
2017-09-22T16:32:46.127Z,4.80
2017-09-22T16:35:13.751Z,4.90
2017-09-22T16:37:41.315Z,4.60
2017-09-22T16:40:08.913Z,5.20
2017-09-22T16:42:36.480Z,4.80
2017-09-22T16:45:04.027Z,5.43
2017-09-22T16:47:31.602Z,5.63
2017-09-22T16:49:59.166Z,6.13
2017-09-22T16:52:26.729Z,5.80
2017-09-22T16:54:54.277Z,6.20
2017-09-22T16:57:21.865Z,5.60
2017-09-22T16:59:50.208Z,5.43
2017-09-22T17:02:17.762Z,6.47
2017-09-22T17:04:45.345Z,5.50
2017-09-22T17:07:12.902Z,6.47
2017-09-22T17:09:41.042Z,6.40
2017-09-22T17:12:08.619Z,6.90
2017-09-22T17:14:36.189Z,5.70
2017-09-22T17:17:03.784Z,6.53
2017-09-22T17:19:32.109Z,7.13
2017-09-22T17:21:59.677Z,6.77
2017-09-22T17:24:27.368Z,6.87
2017-09-22T17:26:54.890Z,5.63
2017-09-22T17:29:22.512Z,7.57
2017-09-22T17:31:50.300Z,7.70
2017-09-22T17:34:17.876Z,8.70
2017-09-22T17:36:45.555Z,7.80
2017-09-22T17:39:13.106Z,7.70
2017-09-22T17:41:40.673Z,7.73
2017-09-22T17:44:12.515Z,7.30
2017-09-22T17:46:41.532Z,6.97
2017-09-22T17:49:10.358Z,6.60
2017-09-22T17:51:38.845Z,7.60
2017-09-22T17:54:06.440Z,7.87
2017-09-22T17:56:34.011Z,7.00
2017-09-22T17:59:01.610Z,7.17
2017-09-22T18:01:29.957Z,7.40
2017-09-22T18:03:58.734Z,8.20
2017-09-22T18:06:26.301Z,8.20
2017-09-22T18:08:53.856Z,7.60
2017-09-22T18:11:21.480Z,8.97
2017-09-22T18:13:49.319Z,8.80
2017-09-22T18:16:17.686Z,7.77
2017-09-22T18:18:46.004Z,7.60
2017-09-22T18:21:13.619Z,7.50
2017-09-22T18:23:41.200Z,8.23
2017-09-22T18:26:09.534Z,8.80
2017-09-22T18:28:37.098Z,9.90
2017-09-22T18:31:04.656Z,8.13
2017-09-22T18:33:32.219Z,9.40
2017-09-22T18:35:59.774Z,7.80
2017-09-22T18:38:27.334Z,9.57
2017-09-22T18:40:54.892Z,9.20
2017-09-22T18:43:22.489Z,8.53
2017-09-22T18:45:50.844Z,8.70
2017-09-22T18:48:18.439Z,8.93
2017-09-22T18:50:46.032Z,10.30
2017-09-22T18:53:13.622Z,11.50
2017-09-22T18:55:41.186Z,11.77
2017-09-22T18:58:08.766Z,14.30
2017-09-22T19:00:37.124Z,14.70
2017-09-22T19:03:04.735Z,13.50
2017-09-22T19:05:32.346Z,13.73
2017-09-22T19:07:59.925Z,12.10
2017-09-22T19:10:28.306Z,11.53
2017-09-22T19:12:55.883Z,10.90
2017-09-22T19:15:23.436Z,10.70
2017-09-22T19:17:51.055Z,9.93
2017-09-22T19:20:18.605Z,10.43
2017-09-22T19:22:46.163Z,11.10
2017-09-22T19:25:13.766Z,9.40
2017-09-22T19:27:42.094Z,9.17
2017-09-22T19:30:09.677Z,9.43
2017-09-22T19:32:37.260Z,9.50
2017-09-22T19:35:05.355Z,10.80
2017-09-22T19:37:32.922Z,8.90
2017-09-22T19:40:00.511Z,10.57
2017-09-22T19:42:28.110Z,9.33
2017-09-22T19:44:56.425Z,9.67
2017-09-22T19:47:24.017Z,10.10
2017-09-22T19:49:51.588Z,8.80
2017-09-22T19:52:19.177Z,9.60
2017-09-22T19:54:46.850Z,10.43
2017-09-22T19:57:14.452Z,9.10
2017-09-22T19:59:42.021Z,10.27
2017-09-22T20:02:09.589Z,9.53
2017-09-22T20:04:37.178Z,9.60
2017-09-22T20:07:04.730Z,9.80
2017-09-22T20:09:32.300Z,9.77
2017-09-22T20:11:59.876Z,10.40
2017-09-22T20:14:27.452Z,10.87
2017-09-22T20:16:55.037Z,10.90
2017-09-22T20:19:22.602Z,10.07
2017-09-22T20:21:50.189Z,11.20
2017-09-22T20:24:17.765Z,10.80
2017-09-22T20:26:45.309Z,11.43
2017-09-22T20:29:13.654Z,10.40
2017-09-22T20:31:41.198Z,11.60
2017-09-22T20:34:08.755Z,11.83
2017-09-22T20:36:36.363Z,11.67
2017-09-22T20:39:03.934Z,10.27
2017-09-22T20:41:31.501Z,10.70
2017-09-22T20:43:59.059Z,14.17
2017-09-22T20:46:26.619Z,15.93
2017-09-22T20:48:54.256Z,16.97
2017-09-22T20:51:22.624Z,12.03
2017-09-22T20:53:50.958Z,12.07
2017-09-22T20:56:18.538Z,10.40
2017-09-22T20:58:46.124Z,11.00
2017-09-22T21:01:14.440Z,10.50
2017-09-22T21:03:42.036Z,11.47
2017-09-22T21:06:09.589Z,11.00
2017-09-22T21:08:37.163Z,10.83
2017-09-22T21:11:04.736Z,11.77
2017-09-22T21:13:33.097Z,12.43
2017-09-22T21:16:00.649Z,10.03
2017-09-22T21:18:28.235Z,11.37
2017-09-22T21:20:56.550Z,11.87
2017-09-22T21:23:24.097Z,11.07
2017-09-22T21:25:51.654Z,10.63
2017-09-22T21:28:19.229Z,12.07
2017-09-22T21:30:46.800Z,12.10
2017-09-22T21:33:14.369Z,10.77
2017-09-22T21:35:41.897Z,10.83
2017-09-22T21:38:09.454Z,11.80
2017-09-22T21:40:38.135Z,12.53
2017-09-22T21:43:05.708Z,13.30
2017-09-22T21:45:33.271Z,14.17
2017-09-22T21:48:00.813Z,14.80
2017-09-22T21:50:28.742Z,13.80
2017-09-22T21:52:56.295Z,14.00
2017-09-22T21:55:23.863Z,14.90
2017-09-22T21:57:51.433Z,15.20
2017-09-22T22:00:19.000Z,15.40
2017-09-22T22:02:47.348Z,15.47
2017-09-22T22:05:20.614Z,15.20
2017-09-22T22:07:48.198Z,12.50
2017-09-22T22:10:15.739Z,13.90
2017-09-22T22:12:43.327Z,15.07
2017-09-22T22:15:10.877Z,12.87
2017-09-22T22:17:38.847Z,11.50
2017-09-22T22:20:06.387Z,11.33
2017-09-22T22:22:33.954Z,10.40
2017-09-22T22:25:01.524Z,10.90
2017-09-22T22:27:29.113Z,11.80
2017-09-22T22:29:56.671Z,11.50
2017-09-22T22:32:25.017Z,11.00
2017-09-22T22:34:53.485Z,11.73
2017-09-22T22:37:21.045Z,11.07
2017-09-22T22:39:48.596Z,11.23
2017-09-22T22:42:16.153Z,11.40
2017-09-22T22:44:43.722Z,11.67
2017-09-22T22:47:11.272Z,12.60
2017-09-22T22:49:38.803Z,12.70
2017-09-22T22:52:06.380Z,12.40
2017-09-22T22:54:33.995Z,11.10
2017-09-22T22:57:01.549Z,10.73
2017-09-22T22:59:29.119Z,11.17
2017-09-22T23:01:56.685Z,10.10
2017-09-22T23:04:25.024Z,11.13
2017-09-22T23:06:52.607Z,10.73
2017-09-22T23:09:20.158Z,10.77
2017-09-22T23:11:47.702Z,12.20
2017-09-22T23:14:15.244Z,10.33
2017-09-22T23:16:42.802Z,11.63
2017-09-22T23:19:10.337Z,10.87
2017-09-22T23:21:37.893Z,10.77
2017-09-22T23:24:05.457Z,11.00
2017-09-22T23:26:32.992Z,10.20
2017-09-22T23:29:00.566Z,11.20
2017-09-22T23:31:28.874Z,13.23
2017-09-22T23:33:56.408Z,13.40
2017-09-22T23:36:23.942Z,15.00
2017-09-22T23:38:52.267Z,13.00
2017-09-22T23:41:19.841Z,13.07
2017-09-22T23:43:47.626Z,11.70
2017-09-22T23:46:15.183Z,11.83
2017-09-22T23:48:42.718Z,11.73
2017-09-22T23:51:10.297Z,11.17
2017-09-22T23:53:37.851Z,11.30
2017-09-22T23:56:05.409Z,10.93
2017-09-22T23:58:32.957Z,10.80
